createdAt,value
2023-04-23T00:01:17.297Z,97524.38
2023-04-23T00:03:24.342Z,97522.94
2023-04-23T00:05:31.025Z,97524.88
2023-04-23T00:07:43.556Z,97523.34
2023-04-23T00:09:53.129Z,97527.72
2023-04-23T00:11:58.598Z,97514.00
2023-04-23T00:14:07.683Z,97511.63
2023-04-23T00:16:14.182Z,97503.63
2023-04-23T00:18:20.293Z,97514.97
2023-04-23T00:20:25.800Z,97506.13
2023-04-23T00:22:30.883Z,97509.56
2023-04-23T00:24:39.276Z,97504.31
2023-04-23T00:26:47.391Z,97504.22
2023-04-23T00:28:52.247Z,97511.38
2023-04-23T00:30:57.156Z,97514.97
2023-04-23T00:33:02.154Z,97511.63
2023-04-23T00:35:08.345Z,97516.28
2023-04-23T00:37:13.223Z,97517.38
2023-04-23T00:39:18.178Z,97516.22
2023-04-23T00:41:24.081Z,97520.97
2023-04-23T00:43:31.560Z,97521.78
2023-04-23T00:45:36.823Z,97511.91
2023-04-23T00:47:43.655Z,97518.81
2023-04-23T00:49:48.837Z,97524.44
2023-04-23T00:51:53.757Z,97525.75
2023-04-23T00:53:59.080Z,97528.72
2023-04-23T00:56:06.778Z,97524.75
2023-04-23T00:58:11.872Z,97513.19
2023-04-23T01:00:20.635Z,97512.22
2023-04-23T01:02:28.211Z,97507.22
2023-04-23T01:04:35.013Z,97505.44
2023-04-23T01:06:43.423Z,97496.25
2023-04-23T01:08:49.961Z,97496.97
2023-04-23T01:10:56.170Z,97499.72
2023-04-23T01:13:01.931Z,97500.56
2023-04-23T01:15:09.169Z,97509.41
2023-04-23T01:17:17.399Z,97510.91
2023-04-23T01:19:22.326Z,97507.13
2023-04-23T01:21:28.554Z,97509.13
2023-04-23T01:23:36.248Z,97505.94
2023-04-23T01:25:42.986Z,97506.41
2023-04-23T01:27:48.035Z,97504.63
2023-04-23T01:29:52.730Z,97509.03
2023-04-23T01:31:58.633Z,97505.59
2023-04-23T01:34:03.860Z,97507.84
2023-04-23T01:36:08.736Z,97507.13
2023-04-23T01:38:14.491Z,97507.84
2023-04-23T01:40:22.593Z,97510.34
2023-04-23T01:42:27.526Z,97507.72
2023-04-23T01:44:32.612Z,97512.25
2023-04-23T01:46:37.971Z,97511.66
2023-04-23T01:48:43.434Z,97517.03
2023-04-23T01:50:48.401Z,97510.84
2023-04-23T01:52:53.454Z,97510.94
2023-04-23T01:54:58.408Z,97510.22
2023-04-23T01:57:06.126Z,97505.69
2023-04-23T01:59:11.091Z,97514.16
2023-04-23T02:01:16.008Z,97517.50
2023-04-23T02:03:21.302Z,97528.03
2023-04-23T02:05:28.449Z,97522.53
2023-04-23T02:07:33.780Z,97527.78
2023-04-23T02:09:38.708Z,97523.50
2023-04-23T02:11:43.866Z,97525.16
2023-04-23T02:13:51.363Z,97521.81
2023-04-23T02:15:56.424Z,97523.72
2023-04-23T02:18:01.421Z,97522.41
2023-04-23T02:20:06.891Z,97520.97
2023-04-23T02:22:12.078Z,97524.44
2023-04-23T02:24:17.015Z,97529.41
2023-04-23T02:26:23.008Z,97535.25
2023-04-23T02:28:27.964Z,97535.84
2023-04-23T02:30:35.787Z,97534.50
2023-04-23T02:32:41.970Z,97539.75
2023-04-23T02:34:46.957Z,97536.66
2023-04-23T02:36:51.933Z,97536.94
2023-04-23T02:38:56.814Z,97532.50
2023-04-23T02:41:01.739Z,97536.69
2023-04-23T02:43:06.728Z,97541.44
2023-04-23T02:45:12.548Z,97541.19
2023-04-23T02:47:20.099Z,97548.97
2023-04-23T02:49:27.416Z,97547.16
2023-04-23T02:51:32.613Z,97548.19
2023-04-23T02:53:37.604Z,97539.00
2023-04-23T02:55:42.552Z,97548.06
2023-04-23T02:57:48.046Z,97544.47
2023-04-23T02:59:53.026Z,97541.97
2023-04-23T03:02:02.155Z,97553.53
2023-04-23T03:04:09.867Z,97549.16
2023-04-23T03:06:14.956Z,97559.38
2023-04-23T03:08:19.882Z,97564.22
2023-04-23T03:10:24.769Z,97560.69
2023-04-23T03:12:29.835Z,97569.44
2023-04-23T03:14:34.746Z,97561.66
2023-04-23T03:16:39.807Z,97560.16
2023-04-23T03:18:45.030Z,97562.78
2023-04-23T03:20:52.617Z,97566.84
2023-04-23T03:22:57.523Z,97567.41
2023-04-23T03:25:02.398Z,97572.97
2023-04-23T03:27:10.322Z,97581.25
2023-04-23T03:29:15.239Z,97579.16
2023-04-23T03:31:20.306Z,97582.66
2023-04-23T03:33:25.897Z,97582.69
2023-04-23T03:35:30.756Z,97586.78
2023-04-23T03:37:42.624Z,97585.09
2023-04-23T03:39:47.683Z,97591.50
2023-04-23T03:41:53.543Z,97595.69
2023-04-23T03:44:02.819Z,97593.78
2023-04-23T03:46:18.246Z,97594.72
2023-04-23T03:48:23.512Z,97594.16
2023-04-23T03:50:29.816Z,97590.84
2023-04-23T03:52:50.158Z,97594.16
2023-04-23T03:55:12.464Z,97598.91
2023-04-23T03:57:21.668Z,97605.41
2023-04-23T03:59:35.999Z,97598.78
2023-04-23T04:01:40.998Z,97598.69
2023-04-23T04:03:46.190Z,97593.44
2023-04-23T04:05:51.455Z,97602.25
2023-04-23T04:07:59.008Z,97604.75
2023-04-23T04:10:07.137Z,97602.66
2023-04-23T04:12:12.450Z,97599.13
2023-04-23T04:14:17.519Z,97593.38
2023-04-23T04:16:22.470Z,97590.00
2023-04-23T04:18:27.288Z,97596.81
2023-04-23T04:20:32.312Z,97596.72
2023-04-23T04:22:37.009Z,97595.66
2023-04-23T04:24:47.768Z,97606.03
2023-04-23T04:26:52.885Z,97609.31
2023-04-23T04:28:58.561Z,97610.56
2023-04-23T04:31:03.605Z,97621.81
2023-04-23T04:33:09.087Z,97629.88
2023-04-23T04:35:14.686Z,97622.97
2023-04-23T04:37:20.922Z,97632.38
2023-04-23T04:39:26.483Z,97629.47
2023-04-23T04:41:33.971Z,97629.34
2023-04-23T04:43:39.164Z,97633.03
2023-04-23T04:45:44.948Z,97634.81
2023-04-23T04:47:49.910Z,97632.38
2023-04-23T04:49:57.695Z,97638.47
2023-04-23T04:52:04.175Z,97642.78
2023-04-23T04:54:09.459Z,97635.75
2023-04-23T04:56:14.370Z,97636.81
2023-04-23T04:58:21.849Z,97632.03
2023-04-23T05:00:29.704Z,97633.69
2023-04-23T05:02:35.110Z,97637.59
2023-04-23T05:04:40.434Z,97640.41
2023-04-23T05:06:45.580Z,97643.34
2023-04-23T05:08:50.946Z,97637.53
2023-04-23T05:10:56.779Z,97645.53
2023-04-23T05:13:02.876Z,97650.53
2023-04-23T05:15:13.482Z,97650.63
2023-04-23T05:17:18.409Z,97650.53
2023-04-23T05:19:23.880Z,97652.50
2023-04-23T05:21:29.849Z,97651.28
2023-04-23T05:23:34.808Z,97651.06
2023-04-23T05:25:39.721Z,97644.34
2023-04-23T05:27:44.905Z,97642.66
2023-04-23T05:29:49.568Z,97652.63
2023-04-23T05:31:57.298Z,97657.75
2023-04-23T05:34:02.242Z,97657.38
2023-04-23T05:36:08.522Z,97653.47
2023-04-23T05:38:13.451Z,97659.97
2023-04-23T05:40:18.377Z,97664.88
2023-04-23T05:42:23.459Z,97658.19
2023-04-23T05:44:28.301Z,97663.13
2023-04-23T05:46:33.245Z,97660.16
2023-04-23T05:48:40.793Z,97659.13
2023-04-23T05:50:45.869Z,97667.81
2023-04-23T05:52:50.900Z,97666.59
2023-04-23T05:54:55.822Z,97671.91
2023-04-23T05:57:01.136Z,97681.97
2023-04-23T05:59:06.366Z,97687.22
2023-04-23T06:01:11.045Z,97688.06
2023-04-23T06:03:16.892Z,97686.56
2023-04-23T06:05:24.845Z,97689.72
2023-04-23T06:07:29.896Z,97696.97
2023-04-23T06:09:36.035Z,97690.66
2023-04-23T06:11:41.243Z,97686.03
2023-04-23T06:13:45.846Z,97704.41
2023-04-23T06:15:50.850Z,97690.22
2023-04-23T06:17:56.009Z,97695.03
2023-04-23T06:20:00.727Z,97697.16
2023-04-23T06:22:08.417Z,97691.91
2023-04-23T06:24:13.373Z,97689.41
2023-04-23T06:26:18.335Z,97687.81
2023-04-23T06:28:25.495Z,97685.81
2023-04-23T06:30:59.567Z,97680.25
2023-04-23T06:33:05.240Z,97677.84
2023-04-23T06:35:10.921Z,97677.13
2023-04-23T06:37:18.544Z,97674.50
2023-04-23T06:39:23.778Z,97678.69
2023-04-23T06:41:29.024Z,97669.06
2023-04-23T06:43:51.761Z,97672.41
2023-04-23T06:46:06.392Z,97679.75
2023-04-23T06:48:11.372Z,97676.59
2023-04-23T06:50:16.359Z,97671.13
2023-04-23T06:52:23.868Z,97674.34
2023-04-23T06:54:28.991Z,97667.81
2023-04-23T06:56:33.573Z,97667.94
2023-04-23T06:58:39.307Z,97668.66
2023-04-23T07:00:52.393Z,97653.97
2023-04-23T07:02:57.629Z,97668.19
2023-04-23T07:05:02.764Z,97663.50
2023-04-23T07:07:08.807Z,97661.84
2023-04-23T07:09:16.341Z,97662.69
2023-04-23T07:11:21.386Z,97660.88
2023-04-23T07:13:26.991Z,97658.03
2023-04-23T07:15:31.978Z,97668.09
2023-04-23T07:17:37.022Z,97661.41
2023-04-23T07:19:42.486Z,97665.09
2023-04-23T07:21:47.386Z,97663.81
2023-04-23T07:23:52.308Z,97666.88
2023-04-23T07:25:59.743Z,97671.16
2023-04-23T07:28:06.781Z,97658.78
2023-04-23T07:30:12.677Z,97663.34
2023-04-23T07:32:17.643Z,97664.78
2023-04-23T07:34:22.561Z,97661.94
2023-04-23T07:36:27.988Z,97660.78
2023-04-23T07:38:32.934Z,97661.25
2023-04-23T07:40:37.799Z,97655.31
2023-04-23T07:42:45.318Z,97656.66
2023-04-23T07:44:50.210Z,97647.06
2023-04-23T07:46:55.232Z,97648.66
2023-04-23T07:49:00.195Z,97640.19
2023-04-23T07:51:06.734Z,97638.81
2023-04-23T07:53:11.641Z,97625.19
2023-04-23T07:55:16.586Z,97621.38
2023-04-23T07:57:21.765Z,97630.59
2023-04-23T07:59:29.021Z,97639.88
2023-04-23T08:01:35.781Z,97631.53
2023-04-23T08:03:40.867Z,97629.53
2023-04-23T08:05:46.294Z,97627.50
2023-04-23T08:07:51.376Z,97624.50
2023-04-23T08:09:56.288Z,97623.28
2023-04-23T08:12:02.249Z,97636.03
2023-04-23T08:14:07.432Z,97641.16
2023-04-23T08:16:14.764Z,97636.00
2023-04-23T08:18:19.727Z,97639.66
2023-04-23T08:20:24.715Z,97641.28
2023-04-23T08:22:29.716Z,97638.78
2023-04-23T08:24:34.793Z,97642.91
2023-04-23T08:26:39.657Z,97646.91
2023-04-23T08:28:44.814Z,97640.00
2023-04-23T08:30:49.650Z,97647.28
2023-04-23T08:32:57.570Z,97652.81
2023-04-23T08:35:02.565Z,97641.81
2023-04-23T08:37:13.926Z,97639.84
2023-04-23T08:39:24.764Z,97635.34
2023-04-23T08:41:37.225Z,97636.41
2023-04-23T08:43:47.826Z,97632.44
2023-04-23T08:45:52.840Z,97632.47
2023-04-23T08:48:03.600Z,97634.63
2023-04-23T08:50:10.495Z,97635.34
2023-04-23T08:52:20.660Z,97626.47
2023-04-23T08:54:29.900Z,97633.38
2023-04-23T08:56:37.361Z,97629.47
2023-04-23T08:58:44.563Z,97631.41
2023-04-23T09:00:50.591Z,97628.81
2023-04-23T09:02:56.230Z,97626.69
2023-04-23T09:05:05.884Z,97626.47
2023-04-23T09:07:11.722Z,97624.00
2023-04-23T09:09:19.543Z,97627.00
2023-04-23T09:11:29.958Z,97619.75
2023-04-23T09:13:36.690Z,97619.41
2023-04-23T09:15:43.829Z,97610.56
2023-04-23T09:17:50.390Z,97605.84
2023-04-23T09:19:57.586Z,97605.22
2023-04-23T09:22:04.994Z,97597.28
2023-04-23T09:24:15.024Z,97602.13
2023-04-23T09:26:23.760Z,97593.88
2023-04-23T09:28:38.129Z,97596.34
2023-04-23T09:30:45.933Z,97588.59
2023-04-23T09:32:51.116Z,97578.03
2023-04-23T09:34:59.048Z,97582.72
2023-04-23T09:37:08.194Z,97573.34
2023-04-23T09:39:16.394Z,97577.19
2023-04-23T09:41:25.661Z,97576.75
2023-04-23T09:43:33.299Z,97574.31
2023-04-23T09:45:38.288Z,97565.06
2023-04-23T09:47:44.781Z,97568.44
2023-04-23T09:49:50.677Z,97570.47
2023-04-23T09:51:55.625Z,97562.06
2023-04-23T09:54:04.880Z,97560.19
2023-04-23T09:56:10.791Z,97556.03
2023-04-23T09:58:17.268Z,97564.75
2023-04-23T10:00:26.053Z,97563.00
2023-04-23T10:02:34.101Z,97563.59
2023-04-23T10:04:39.413Z,97564.88
2023-04-23T10:06:53.509Z,97562.25
2023-04-23T10:09:12.756Z,97557.53
2023-04-23T10:11:21.086Z,97561.00
2023-04-23T10:13:27.092Z,97559.88
2023-04-23T10:15:32.002Z,97555.47
2023-04-23T10:17:38.266Z,97546.34
2023-04-23T10:19:45.738Z,97551.31
2023-04-23T10:21:56.219Z,97548.66
2023-04-23T10:24:05.383Z,97550.22
2023-04-23T10:26:17.814Z,97547.00
2023-04-23T10:28:29.340Z,97545.72
2023-04-23T10:30:34.277Z,97542.59
2023-04-23T10:32:40.617Z,97536.38
2023-04-23T10:34:45.758Z,97539.31
2023-04-23T10:36:50.996Z,97538.78
2023-04-23T10:39:01.933Z,97539.03
2023-04-23T10:41:13.768Z,97535.81
2023-04-23T10:43:19.071Z,97533.63
2023-04-23T10:45:25.753Z,97535.16
2023-04-23T10:47:31.014Z,97534.00
2023-04-23T10:49:36.218Z,97531.66
2023-04-23T10:53:51.351Z,97526.09
2023-04-23T10:56:09.586Z,97512.13
2023-04-23T10:58:17.130Z,97514.47
2023-04-23T11:00:22.134Z,97516.66
2023-04-23T11:02:27.961Z,97518.84
2023-04-23T11:04:33.243Z,97508.94
2023-04-23T11:07:07.649Z,97511.16
2023-04-23T11:09:34.314Z,97509.19
2023-04-23T11:11:43.136Z,97503.63
2023-04-23T11:13:58.527Z,97497.59
2023-04-23T11:16:18.801Z,97499.06
2023-04-23T11:18:26.955Z,97496.81
2023-04-23T11:20:31.943Z,97494.94
2023-04-23T11:22:37.665Z,97492.91
2023-04-23T11:24:49.510Z,97482.38
2023-04-23T11:26:56.512Z,97480.56
2023-04-23T11:29:04.648Z,97474.50
2023-04-23T11:31:09.700Z,97479.56
2023-04-23T11:33:14.608Z,97473.00
2023-04-23T11:35:21.121Z,97464.19
2023-04-23T11:37:27.308Z,97472.06
2023-04-23T11:39:32.271Z,97468.81
2023-04-23T11:41:38.332Z,97459.66
2023-04-23T11:43:45.886Z,97463.72
2023-04-23T11:45:53.455Z,97455.13
2023-04-23T11:47:59.997Z,97460.25
2023-04-23T11:50:05.029Z,97454.72
2023-04-23T11:52:10.082Z,97451.25
2023-04-23T11:54:15.149Z,97450.03
2023-04-23T11:56:20.438Z,97443.06
2023-04-23T11:58:25.462Z,97442.72
2023-04-23T12:00:30.567Z,97442.66
2023-04-23T12:02:37.886Z,97441.22
2023-04-23T12:04:42.871Z,97443.69
2023-04-23T12:06:49.451Z,97434.63
2023-04-23T12:08:54.489Z,97430.16
2023-04-23T12:11:06.425Z,97422.22
2023-04-23T12:13:16.775Z,97417.91
2023-04-23T12:15:22.196Z,97411.50
2023-04-23T12:17:27.089Z,97406.59
2023-04-23T12:19:34.723Z,97407.13
2023-04-23T12:21:51.287Z,97399.69
2023-04-23T12:23:56.207Z,97399.09
2023-04-23T12:26:01.174Z,97401.66
2023-04-23T12:28:07.767Z,97393.88
2023-04-23T12:30:14.804Z,97398.19
2023-04-23T12:32:23.132Z,97390.09
2023-04-23T12:34:28.376Z,97397.81
2023-04-23T12:36:35.985Z,97392.22
2023-04-23T12:38:42.932Z,97386.41
2023-04-23T12:40:47.770Z,97392.81
2023-04-23T12:42:52.654Z,97384.53
2023-04-23T12:44:58.195Z,97393.53
2023-04-23T12:47:06.087Z,97387.56
2023-04-23T12:49:10.999Z,97390.28
2023-04-23T12:51:16.041Z,97386.63
2023-04-23T12:53:23.639Z,97384.47
2023-04-23T12:55:28.540Z,97387.88
2023-04-23T12:57:33.755Z,97381.06
2023-04-23T12:59:38.680Z,97379.91
2023-04-23T13:01:43.742Z,97382.63
2023-04-23T13:03:48.556Z,97383.13
2023-04-23T13:05:53.619Z,97376.84
2023-04-23T13:07:58.508Z,97378.53
2023-04-23T13:10:06.053Z,97372.31
2023-04-23T13:12:10.918Z,97362.06
2023-04-23T13:14:15.877Z,97371.94
2023-04-23T13:16:20.793Z,97367.88
2023-04-23T13:18:25.839Z,97358.19
2023-04-23T13:20:30.801Z,97351.09
2023-04-23T13:22:35.722Z,97357.06
2023-04-23T13:24:40.827Z,97351.31
2023-04-23T13:26:48.164Z,97342.25
2023-04-23T13:28:53.437Z,97335.91
2023-04-23T13:30:58.068Z,97331.06
2023-04-23T13:33:04.228Z,97327.75
2023-04-23T13:35:10.566Z,97317.91
2023-04-23T13:37:15.513Z,97315.19
2023-04-23T13:39:20.617Z,97308.38
2023-04-23T13:41:25.277Z,97306.94
2023-04-23T13:43:32.883Z,97298.72
2023-04-23T13:45:37.886Z,97294.03
2023-04-23T13:47:43.084Z,97294.88
2023-04-23T13:49:47.796Z,97286.44
2023-04-23T13:51:54.307Z,97283.19
2023-04-23T13:53:59.426Z,97286.00
2023-04-23T13:56:04.094Z,97274.66
2023-04-23T13:58:12.135Z,97271.28
2023-04-23T14:00:20.921Z,97273.41
2023-04-23T14:02:26.694Z,97264.03
2023-04-23T14:04:31.635Z,97255.28
2023-04-23T14:06:36.634Z,97267.16
2023-04-23T14:08:42.183Z,97268.97
2023-04-23T14:10:47.158Z,97263.38
2023-04-23T14:12:52.255Z,97246.75
2023-04-23T14:14:56.894Z,97247.31
2023-04-23T14:17:05.802Z,97243.56
2023-04-23T14:19:10.704Z,97239.25
2023-04-23T14:21:16.512Z,97234.50
2023-04-23T14:23:48.579Z,97236.56
2023-04-23T14:26:00.793Z,97242.53
2023-04-23T14:28:37.436Z,97237.28
2023-04-23T14:30:43.632Z,97232.69
2023-04-23T14:32:51.333Z,97220.53
2023-04-23T14:34:56.344Z,97226.25
2023-04-23T14:37:01.302Z,97221.59
2023-04-23T14:39:07.451Z,97212.53
2023-04-23T14:41:12.284Z,97213.34
2023-04-23T14:43:17.356Z,97209.56
2023-04-23T14:45:22.270Z,97206.00
2023-04-23T14:47:27.345Z,97210.78
2023-04-23T14:49:34.697Z,97210.09
2023-04-23T14:51:39.794Z,97196.16
2023-04-23T14:53:46.552Z,97201.25
2023-04-23T14:55:51.535Z,97195.81
2023-04-23T14:57:56.403Z,97200.63
2023-04-23T15:00:01.671Z,97199.06
2023-04-23T15:02:08.953Z,97202.31
2023-04-23T15:04:14.438Z,97194.97
2023-04-23T15:06:22.043Z,97197.53
2023-04-23T15:08:26.991Z,97190.19
2023-04-23T15:10:31.914Z,97184.63
2023-04-23T15:12:40.755Z,97191.25
2023-04-23T15:14:49.070Z,97179.22
2023-04-23T15:16:54.974Z,97181.88
2023-04-23T15:19:00.136Z,97181.28
2023-04-23T15:21:05.779Z,97186.66
2023-04-23T15:23:13.440Z,97174.47
2023-04-23T15:25:19.246Z,97173.06
2023-04-23T15:27:24.493Z,97163.09
2023-04-23T15:29:30.249Z,97164.09
2023-04-23T15:31:35.278Z,97164.41
2023-04-23T15:33:41.171Z,97151.97
2023-04-23T15:35:47.688Z,97146.66
2023-04-23T15:37:53.146Z,97142.97
2023-04-23T15:40:01.298Z,97145.78
2023-04-23T15:42:06.549Z,97140.31
2023-04-23T15:44:13.627Z,97134.69
2023-04-23T15:46:18.564Z,97139.84
2023-04-23T15:48:24.402Z,97136.69
2023-04-23T15:50:29.505Z,97132.91
2023-04-23T15:52:34.235Z,97129.63
2023-04-23T15:54:39.107Z,97121.66
2023-04-23T15:56:46.447Z,97128.63
2023-04-23T15:58:52.065Z,97122.16
2023-04-23T16:00:57.127Z,97120.66
2023-04-23T16:03:04.769Z,97112.38
2023-04-23T16:05:10.449Z,97122.50
2023-04-23T16:07:16.335Z,97118.84
2023-04-23T16:09:24.395Z,97113.03
2023-04-23T16:11:29.350Z,97114.03
2023-04-23T16:13:36.685Z,97106.75
2023-04-23T16:15:43.927Z,97102.59
2023-04-23T16:17:49.012Z,97099.09
2023-04-23T16:19:53.968Z,97097.59
2023-04-23T16:21:58.634Z,97102.25
2023-04-23T16:24:04.026Z,97102.38
2023-04-23T16:26:11.553Z,97097.25
2023-04-23T16:28:16.755Z,97092.44
2023-04-23T16:30:24.264Z,97098.53
2023-04-23T16:32:29.230Z,97103.34
2023-04-23T16:34:34.051Z,97095.81
2023-04-23T16:36:39.108Z,97092.69
2023-04-23T16:38:47.992Z,97094.63
2023-04-23T16:42:59.275Z,97089.41
2023-04-23T16:45:04.148Z,97090.72
2023-04-23T16:47:14.456Z,97098.59
2023-04-23T16:49:19.431Z,97091.00
2023-04-23T16:51:24.295Z,97097.97
2023-04-23T16:53:29.557Z,97096.78
2023-04-23T16:55:35.522Z,97093.94
2023-04-23T16:57:40.497Z,97097.72
2023-04-23T16:59:45.227Z,97100.66
2023-04-23T17:01:51.039Z,97100.44
2023-04-23T17:03:58.624Z,97094.59
2023-04-23T17:06:12.181Z,97087.19
2023-04-23T17:08:17.924Z,97061.69
2023-04-23T17:10:22.925Z,97065.03
2023-04-23T17:12:28.197Z,97051.75
2023-04-23T17:14:33.100Z,97044.88
2023-04-23T17:16:38.044Z,97052.94
2023-04-23T17:18:43.062Z,97051.34
2023-04-23T17:20:50.607Z,97055.13
2023-04-23T17:22:56.039Z,97055.84
2023-04-23T17:25:01.229Z,97042.81
2023-04-23T17:27:06.139Z,97042.13
2023-04-23T17:29:11.270Z,97043.44
2023-04-23T17:31:16.547Z,97044.84
2023-04-23T17:33:24.363Z,97041.53
2023-04-23T17:35:29.333Z,97036.38
2023-04-23T17:37:37.005Z,97037.28
2023-04-23T17:39:41.900Z,97039.56
2023-04-23T17:41:46.815Z,97034.31
2023-04-23T17:43:52.183Z,97024.94
2023-04-23T17:45:57.118Z,97035.09
2023-04-23T17:48:02.203Z,97032.81
2023-04-23T17:50:11.844Z,97029.53
2023-04-23T17:52:16.779Z,97036.13
2023-04-23T17:54:24.336Z,97036.97
2023-04-23T17:56:29.415Z,97037.97
2023-04-23T17:58:36.054Z,97033.00
2023-04-23T18:00:44.493Z,97032.47
2023-04-23T18:02:50.113Z,97028.34
2023-04-23T18:04:55.722Z,97024.03
2023-04-23T18:07:00.728Z,97023.34
2023-04-23T18:09:06.047Z,97028.75
2023-04-23T18:11:13.753Z,97024.00
2023-04-23T18:13:21.855Z,97023.75
2023-04-23T18:15:29.057Z,97031.38
2023-04-23T18:17:34.093Z,97024.28
2023-04-23T18:19:39.029Z,97010.72
2023-04-23T18:21:45.037Z,97012.41
2023-04-23T18:23:50.072Z,97012.53
2023-04-23T18:25:55.079Z,97012.53
2023-04-23T18:28:02.774Z,97020.41
2023-04-23T18:30:12.199Z,97029.13
2023-04-23T18:32:31.431Z,97024.56
2023-04-23T18:34:44.748Z,97033.84
2023-04-23T18:36:53.120Z,97042.56
2023-04-23T18:38:58.652Z,97044.00
2023-04-23T18:41:04.775Z,97036.34
2023-04-23T18:43:12.328Z,97048.81
2023-04-23T18:45:17.786Z,97062.16
2023-04-23T18:47:23.665Z,97053.94
2023-04-23T18:49:48.274Z,97070.53
2023-04-23T18:51:54.342Z,97083.53
2023-04-23T18:53:59.383Z,97087.56
2023-04-23T18:56:04.631Z,97127.78
2023-04-23T18:58:12.236Z,97155.53
2023-04-23T19:00:22.061Z,97193.09
2023-04-23T19:02:35.105Z,97249.38
2023-04-23T19:04:43.956Z,97331.97
2023-04-23T19:06:50.430Z,97349.56
2023-04-23T19:08:56.423Z,97379.59
2023-04-23T19:11:01.963Z,97396.53
2023-04-23T19:13:09.624Z,97406.38
2023-04-23T19:15:25.062Z,97408.59
2023-04-23T19:17:36.707Z,97414.13
2023-04-23T19:19:42.146Z,97416.66
2023-04-23T19:21:47.261Z,97415.28
2023-04-23T19:23:54.218Z,97424.16
2023-04-23T19:25:59.311Z,97408.19
2023-04-23T19:28:04.224Z,97388.91
2023-04-23T19:30:12.151Z,97385.56
2023-04-23T19:32:19.680Z,97375.41
2023-04-23T19:34:24.608Z,97371.44
2023-04-23T19:36:29.559Z,97342.34
2023-04-23T19:38:34.536Z,97326.16
2023-04-23T19:40:39.547Z,97298.72
2023-04-23T19:42:44.933Z,97301.88
2023-04-23T19:44:50.425Z,97308.94
2023-04-23T19:46:58.074Z,97314.06
2023-04-23T19:49:06.027Z,97316.47
2023-04-23T19:51:11.236Z,97336.00
2023-04-23T19:53:16.303Z,97351.31
2023-04-23T19:55:26.063Z,97365.63
2023-04-23T19:57:31.297Z,97363.63
2023-04-23T19:59:36.251Z,97359.44
2023-04-23T20:01:41.842Z,97365.63
2023-04-23T20:03:48.090Z,97373.69
2023-04-23T20:05:58.559Z,97377.13
2023-04-23T20:08:04.948Z,97378.19
2023-04-23T20:10:11.149Z,97382.19
2023-04-23T20:12:16.457Z,97384.69
2023-04-23T20:14:21.462Z,97381.34
2023-04-23T20:16:28.513Z,97385.31
2023-04-23T20:18:36.008Z,97397.59
2023-04-23T20:20:42.179Z,97391.00
2023-04-23T20:22:49.974Z,97390.16
2023-04-23T20:24:54.949Z,97390.59
2023-04-23T20:26:59.944Z,97384.00
2023-04-23T20:29:05.547Z,97387.44
2023-04-23T20:31:10.705Z,97381.38
2023-04-23T20:33:16.121Z,97378.97
2023-04-23T20:35:21.093Z,97378.97
2023-04-23T20:37:27.243Z,97376.44
2023-04-23T20:39:34.808Z,97382.50
2023-04-23T20:41:40.606Z,97382.63
2023-04-23T20:43:46.432Z,97375.41
2023-04-23T20:45:51.507Z,97374.56
2023-04-23T20:47:57.680Z,97374.38
2023-04-23T20:50:02.622Z,97374.16
2023-04-23T20:52:09.463Z,97370.59
2023-04-23T20:54:14.562Z,97366.31
2023-04-23T20:56:22.129Z,97369.66
2023-04-23T20:58:27.101Z,97365.34
2023-04-23T21:00:32.110Z,97364.72
2023-04-23T21:02:38.088Z,97363.91
2023-04-23T21:04:43.434Z,97366.44
2023-04-23T21:06:48.562Z,97362.34
2023-04-23T21:08:53.456Z,97358.97
2023-04-23T21:10:58.523Z,97350.22
2023-04-23T21:13:06.125Z,97350.22
2023-04-23T21:15:12.914Z,97348.41
2023-04-23T21:17:18.364Z,97341.53
2023-04-23T21:19:23.244Z,97347.59
2023-04-23T21:21:29.875Z,97338.69
2023-04-23T21:23:35.114Z,97331.78
2023-04-23T21:25:42.148Z,97325.72
2023-04-23T21:27:48.722Z,97331.78
2023-04-23T21:29:56.499Z,97337.53
2023-04-23T21:32:01.390Z,97332.09
2023-04-23T21:34:06.649Z,97330.28
2023-04-23T21:36:11.427Z,97335.22
2023-04-23T21:38:16.444Z,97333.97
2023-04-23T21:40:21.599Z,97333.63
2023-04-23T21:42:26.559Z,97341.25
2023-04-23T21:44:32.004Z,97342.72
2023-04-23T21:46:39.749Z,97335.47
2023-04-23T21:48:47.379Z,97346.47
2023-04-23T21:50:53.930Z,97353.28
2023-04-23T21:52:59.694Z,97342.16
2023-04-23T21:55:06.925Z,97336.09
2023-04-23T21:57:11.850Z,97336.31
2023-04-23T21:59:16.850Z,97333.63
2023-04-23T22:01:21.794Z,97333.84
2023-04-23T22:03:37.686Z,97336.56
2023-04-23T22:05:44.909Z,97331.22
2023-04-23T22:07:50.354Z,97339.28
2023-04-23T22:09:57.290Z,97333.22
2023-04-23T22:12:04.471Z,97328.00
2023-04-23T22:14:09.856Z,97329.03
2023-04-23T22:16:27.502Z,97329.78
2023-04-23T22:18:36.484Z,97325.16
2023-04-23T22:20:44.916Z,97334.69
2023-04-23T22:22:49.812Z,97333.00
2023-04-23T22:24:54.751Z,97330.28
2023-04-23T22:26:59.979Z,97332.91
2023-04-23T22:29:07.105Z,97334.47
2023-04-23T22:31:11.988Z,97345.25
2023-04-23T22:33:16.916Z,97357.91
2023-04-23T22:35:24.585Z,97354.31
2023-04-23T22:37:29.906Z,97354.03
2023-04-23T22:39:34.898Z,97348.69
2023-04-23T22:41:42.756Z,97348.88
2023-04-23T22:43:47.649Z,97348.03
2023-04-23T22:45:52.805Z,97341.25
2023-04-23T22:47:58.022Z,97336.13
2023-04-23T22:50:02.707Z,97333.75
2023-04-23T22:52:12.077Z,97335.41
2023-04-23T22:54:17.003Z,97334.25
2023-04-23T22:56:22.809Z,97331.66
2023-04-23T22:58:27.929Z,97321.19
2023-04-23T23:00:32.804Z,97334.97
2023-04-23T23:02:37.846Z,97326.06
2023-04-23T23:04:43.096Z,97327.41
2023-04-23T23:06:48.112Z,97328.25
2023-04-23T23:08:55.577Z,97325.41
2023-04-23T23:11:00.662Z,97320.91
2023-04-23T23:13:05.739Z,97321.50
2023-04-23T23:15:11.975Z,97322.34
2023-04-23T23:17:16.869Z,97317.09
2023-04-23T23:19:21.818Z,97329.28
2023-04-23T23:21:26.776Z,97325.09
2023-04-23T23:23:31.798Z,97325.19
2023-04-23T23:25:39.903Z,97315.56
2023-04-23T23:27:45.254Z,97313.19
2023-04-23T23:29:50.346Z,97308.03
2023-04-23T23:31:55.057Z,97305.66
2023-04-23T23:33:59.975Z,97317.06
2023-04-23T23:36:05.088Z,97303.13
2023-04-23T23:38:09.983Z,97303.25
2023-04-23T23:40:15.267Z,97292.16
2023-04-23T23:42:22.856Z,97288.00
2023-04-23T23:44:27.796Z,97296.16
2023-04-23T23:46:32.904Z,97302.44
2023-04-23T23:48:37.840Z,97294.72
2023-04-23T23:50:42.753Z,97296.72
2023-04-23T23:52:47.666Z,97290.63
2023-04-23T23:54:52.528Z,97285.28
2023-04-23T23:56:57.991Z,97286.13
2023-04-23T23:59:05.790Z,97288.53
